Henrietta, MO (64036)

2:48 PM CDT on September 01, 2014 (GMT -0500)
Ray County Hospital | Change Station
CLOSE
Current Station
Personal Weather Station
Location: Richmond, MO
Elevation: 827 ft
Nearby Weather Stations

Elev 827 ft 39.26 °N, 93.96 °W | Updated 6 seconds ago

Mostly Cloudy
Mostly Cloudy
80.8 °F
Feels Like 83 °F
N
6.9
Wind Variable Wind from WSW
Gusts 6.9 mph

Today
High -- | Low -- °F
--% Chance of Precip.
Yesterday
High -- | Low -- °F
Precip. -- in
6:44 AM 7:46 PM
Waxing Crescent, 43% visible
Pressure 29.90 in
Visibility 10.0 miles
Clouds Overcast 3900 ft
Heat Index 83 °F
Dew Point 65 °F
Humidity 59%
Rainfall 0.92 in
Snow Depth Not available.
UV 3 out of 12
Pollen 3.90 out of 12
Air Quality Not available.
Flu Activity Not available.
METAR KGPH 011935Z AUTO 25007KT 10SM OVC039 26/18 A2990 RMK AO2

More Conditions Fewer Conditions

Pressure 29.90 in
Visibility 10.0 miles
Clouds Overcast 3900 ft
Heat Index 83 °F
Dew Point 65 °F
Humidity 59%
Rainfall 0.92 in
Snow Depth Not available.
UV 3 out of 12
Pollen 3.90 out of 12
Air Quality Not available.
Flu Activity Not available.
METAR KGPH 011935Z AUTO 25007KT 10SM OVC039 26/18 A2990 RMK AO2

More Conditions Fewer Conditions

10-Day Weather Forecast

Almanac

Astronomy

Sep. 01, 2014 Rise Set
Actual Time 6:44 AM CDT 7:46 PM CDT
Civil Twilight 6:16 AM CDT 8:13 PM CDT
Nautical Twilight 5:44 AM CDT 8:46 PM CDT
Astronomical Twilight 5:10 AM CDT 9:20 PM CDT
Moon 1:27 PM CDT 11:50 PM CDT
Length of Visible Light 13h 56m
Length of Day
13h 01m
Tomorrow will be 2m 28s shorter.
Waxing Crescent, 43% of the Moon is Illuminated
Today
Waxing Crescent
Sep 2
First Quarter
Sep 8
Full
Sep 15
Last Quarter
Sep 24
New

Today's Extremes

State Highs State Lows

Community

WunderPhotos

Upload Photos

1,749,387 photos uploaded!

WunderBlogs® & News

Nearby

Snow Depth

Station Depth Elevation
No new snow has been reported.

Earthquake Activity

City Distance Mag. Time & Date
No recent earthquake activity has been reported nearby.
Minimum magnitude displayed is 2.5.

Coastal Water Temperatures

Place Temperature
No Stations Reporting

Nearby Weather Stations